La Blanca, Texas
Current Conditions -  °F | °C
As of 12:15 PM on Thursday 23 Oct 2014 (Local Time) from KT65 Reporting Station
Scattered Clouds Scattered Clouds  
Wind Chill: 82°   Ceiling: Unl
Heat Index: 83°   Visibility: 7mi
Dew Point: 65°   Wind: 5mph
Humidity: 57%   Direction: 20°NNE
Pressure: 30.1"   Gusts: NA
Location:  26.29°N, 98.04°W
Report Text: KT65 231715Z AUTO 02004KT 7SM SCT030 28/18 A3010 RMK AO2 T02760184
Loading
Personal Weather Stations






























Interactive Weather Map New forecast layout! Learn more

10-Day Weather Forecast

Advertisements
Track Severe Weather on mobile